Rugeley, United Kingdom
Current Conditions -  °F | °C
As of 11:50 AM on Saturday 27 Dec 2014 (Local Time) from EGBB Reporting Station
Broken Clouds Broken Clouds  
Wind Chill: -1°   Ceiling: 900
Heat Index:   Visibility: 6mi
Dew Point:   Wind: 10mph
Humidity: 87%   Direction: 310°NW
Pressure: 29.8"   Gusts: NA
Location:  52.76°N, 1.93°W
Report Text: EGBB 271150Z 31009KT 9999 BKN009 BKN028 03/01 Q1009
Loading
Personal Weather Stations






























Interactive Weather Map New forecast layout! Learn more

10-Day Weather Forecast

Advertisements
Track Severe Weather on mobile